createdAt,value
2022-08-17T00:00:43.125Z,21.00
2022-08-17T20:00:47.707Z,23.30
2022-08-17T20:03:20.378Z,22.80
2022-08-17T20:06:12.053Z,22.80
2022-08-17T20:08:42.358Z,22.90
2022-08-17T20:11:16.141Z,23.00
2022-08-17T20:13:49.029Z,23.10
2022-08-17T20:16:20.243Z,23.30
2022-08-17T20:18:55.566Z,23.40
2022-08-17T20:21:27.339Z,23.40
2022-08-17T20:24:05.516Z,23.50
2022-08-17T20:26:55.219Z,23.50
2022-08-17T20:29:39.792Z,23.50
2022-08-17T20:32:26.509Z,23.50
2022-08-17T20:35:19.207Z,23.40
2022-08-17T20:37:54.501Z,23.30
2022-08-17T20:40:26.976Z,23.30
2022-08-17T20:42:55.408Z,23.30
2022-08-17T20:46:08.118Z,23.30
2022-08-17T20:48:45.941Z,23.20
2022-08-17T20:51:25.919Z,23.20
2022-08-17T20:54:23.445Z,23.00
2022-08-17T20:56:57.489Z,23.00
2022-08-17T21:00:01.315Z,22.90
2022-08-17T21:02:32.274Z,22.80
2022-08-17T21:05:08.253Z,22.80
2022-08-17T21:07:58.388Z,22.80
2022-08-17T21:10:35.655Z,22.80
2022-08-17T21:13:41.166Z,22.70
2022-08-17T21:16:26.673Z,22.70
2022-08-17T21:19:04.741Z,22.60
2022-08-17T21:21:48.422Z,22.60
2022-08-17T21:24:27.369Z,22.60
2022-08-17T21:27:09.626Z,22.60
2022-08-17T21:29:53.876Z,22.60
2022-08-17T21:32:30.536Z,22.50
2022-08-17T21:35:47.181Z,22.50
2022-08-17T21:38:20.413Z,22.50
2022-08-17T21:40:51.288Z,22.40
2022-08-17T21:43:24.519Z,22.40
2022-08-17T21:46:00.190Z,22.40
2022-08-17T21:48:31.282Z,22.40
2022-08-17T21:51:04.715Z,22.30
2022-08-17T21:53:39.503Z,22.30
2022-08-17T21:56:09.586Z,22.30
2022-08-17T21:58:40.988Z,22.30
2022-08-17T22:01:24.836Z,22.30
2022-08-17T22:03:59.880Z,22.30
2022-08-17T22:06:31.555Z,22.30
2022-08-17T22:09:05.950Z,22.30
2022-08-17T22:11:53.311Z,22.30
2022-08-17T22:14:22.693Z,22.30
2022-08-17T22:17:10.942Z,22.30
2022-08-17T22:19:40.573Z,22.20
2022-08-17T22:22:20.879Z,22.20
2022-08-17T22:24:57.529Z,22.20
2022-08-17T22:27:48.539Z,22.20
2022-08-17T22:30:30.204Z,22.20
2022-08-17T22:32:58.988Z,22.20
2022-08-17T22:35:47.894Z,22.20
2022-08-17T22:38:32.598Z,22.10
2022-08-17T22:41:31.882Z,22.20
2022-08-17T22:44:07.848Z,22.20
2022-08-17T22:46:42.373Z,22.30
2022-08-17T22:49:10.392Z,22.30
2022-08-17T22:51:38.504Z,22.40
2022-08-17T22:54:35.107Z,22.40
2022-08-17T22:57:23.752Z,22.40
2022-08-17T22:59:54.655Z,22.50
2022-08-17T23:02:26.006Z,22.60
2022-08-17T23:04:59.254Z,22.60
2022-08-17T23:07:29.488Z,22.60
2022-08-17T23:09:57.471Z,22.60
2022-08-17T23:12:27.925Z,22.50
2022-08-17T23:15:01.635Z,22.50
2022-08-17T23:17:32.867Z,22.60
2022-08-17T23:20:03.255Z,22.60
2022-08-17T23:22:33.047Z,22.50
2022-08-17T23:25:01.061Z,22.60
2022-08-17T23:27:30.518Z,22.50
2022-08-17T23:29:59.033Z,22.60
2022-08-17T23:32:27.130Z,22.60
2022-08-17T23:34:55.102Z,22.60
2022-08-17T23:37:23.070Z,22.60
2022-08-17T23:39:51.139Z,22.60
2022-08-17T23:42:22.045Z,22.70
2022-08-17T23:44:51.360Z,22.70
2022-08-17T23:47:19.590Z,22.70
2022-08-17T23:49:47.552Z,22.80
2022-08-17T23:52:16.774Z,22.80
2022-08-17T23:54:47.295Z,22.90
2022-08-17T23:57:17.928Z,22.90
